Time;durP1;ratioP1;P1;durP2;ratioP2;P2;SDS_P1;SDS_P2;PMS_P1;PMS_P2;Temp;Humidity;BMP_temperature;BMP_pressure;BME280_temperature;BME280_humidity;BME280_pressure;Samples;Min_cycle;Max_cycle;Signal;HPM_P1;HPM_P2
2023/04/11 00:02:11;;;;;;;;;4.80;4.80;;;;;;;;5035496;29;9494;-64
2023/04/11 00:04:42;;;;;;;;;3.20;2.40;;;;;;;;5049917;29;8813;-65
2023/04/11 00:07:13;;;;;;;;;4.00;4.00;;;;;;;;5035139;29;9571;-65
2023/04/11 00:09:44;;;;;;;;;9.20;8.80;;;;;;;;5034816;29;8836;-65
2023/04/11 00:12:15;;;;;;;;;5.75;5.75;;;;;;;;5050415;29;8805;-65
2023/04/11 00:14:47;;;;;;;;;1.60;1.00;;;;;;;;5050480;29;9591;-65
2023/04/11 00:17:19;;;;;;;;;14.60;14.20;;;;;;;;5035040;29;8790;-65
2023/04/11 00:19:52;;;;;;;;;12.60;12.60;;;;;;;;5067237;29;8820;-64
2023/04/11 00:22:23;;;;;;;;;17.20;15.60;;;;;;;;5035112;29;8815;-64
2023/04/11 00:24:54;;;;;;;;;55.00;48.00;;;;;;;;5050214;29;8789;-64
2023/04/11 00:27:26;;;;;;;;;29.00;28.00;;;;;;;;5050111;29;8794;-65
2023/04/11 00:29:57;;;;;;;;;16.20;15.40;;;;;;;;5050439;29;8802;-65
2023/04/11 00:32:28;;;;;;;;;14.20;12.00;;;;;;;;5050127;29;8865;-65
2023/04/11 00:34:59;;;;;;;;;25.00;23.80;;;;;;;;5050338;29;8790;-65
2023/04/11 00:37:34;;;;;;;;;20.60;20.20;;;;;;;;5034479;29;8812;-65
2023/04/11 00:40:06;;;;;;;;;18.60;16.40;;;;;;;;5049633;29;8906;-65
2023/04/11 00:42:38;;;;;;;;;14.60;14.60;;;;;;;;5050292;29;8883;-65
2023/04/11 00:45:09;;;;;;;;;8.00;6.40;;;;;;;;5065718;29;8924;-65
2023/04/11 00:47:41;;;;;;;;;5.60;5.60;;;;;;;;5034174;29;8840;-66
2023/04/11 00:50:12;;;;;;;;;5.40;5.00;;;;;;;;5050306;29;8786;-65
2023/04/11 00:53:02;;;;;;;;;5.20;5.20;;;;;;;;5037015;29;8786;-65
2023/04/11 00:55:33;;;;;;;;;5.00;5.00;;;;;;;;5049841;29;8925;-65
2023/04/11 00:58:05;;;;;;;;;4.40;4.40;;;;;;;;5034491;29;10510;-64
2023/04/11 01:00:37;;;;;;;;;3.60;3.60;;;;;;;;5019252;29;8802;-65
2023/04/11 01:03:08;;;;;;;;;6.00;6.00;;;;;;;;5049375;29;8794;-65
2023/04/11 01:05:39;;;;;;;;;9.00;9.00;;;;;;;;5034211;29;8813;-65
2023/04/11 01:08:11;;;;;;;;;9.00;8.80;;;;;;;;5064888;29;9377;-65
2023/04/11 01:10:42;;;;;;;;;9.60;9.20;;;;;;;;5049545;29;8790;-65
2023/04/11 01:13:35;;;;;;;;;12.60;10.40;;;;;;;;5066420;29;9005;-65
2023/04/11 01:16:07;;;;;;;;;10.20;9.60;;;;;;;;5033510;29;8844;-65
2023/04/11 01:18:38;;;;;;;;;12.20;11.60;;;;;;;;5048829;29;9669;-65
2023/04/11 01:21:09;;;;;;;;;14.00;14.00;;;;;;;;5049205;29;8912;-64
2023/04/11 01:23:41;;;;;;;;;12.20;12.20;;;;;;;;5049072;29;8879;-64
2023/04/11 01:26:11;;;;;;;;;15.20;15.20;;;;;;;;5049221;29;9533;-65
2023/04/11 01:28:43;;;;;;;;;17.60;17.00;;;;;;;;5033882;29;8802;-66
2023/04/11 01:31:14;;;;;;;;;17.40;17.20;;;;;;;;5048450;29;8927;-66
2023/04/11 01:33:46;;;;;;;;;19.00;18.40;;;;;;;;5018323;29;8816;-66
2023/04/11 01:36:36;;;;;;;;;22.60;21.60;;;;;;;;5049126;29;9008;-67
2023/04/11 01:39:07;;;;;;;;;25.60;24.20;;;;;;;;5048743;29;8814;-67
2023/04/11 01:41:39;;;;;;;;;18.80;18.80;;;;;;;;5049127;29;8789;-66
2023/04/11 01:44:11;;;;;;;;;27.60;27.60;;;;;;;;5053093;29;8819;-65
2023/04/11 01:46:43;;;;;;;;;11.80;11.00;;;;;;;;5034534;29;8806;-66
2023/04/11 01:49:14;;;;;;;;;17.60;15.40;;;;;;;;5033335;29;8808;-66
2023/04/11 01:51:46;;;;;;;;;17.60;16.00;;;;;;;;5048450;29;8816;-64
2023/04/11 01:54:17;;;;;;;;;11.00;11.00;;;;;;;;5065505;29;8770;-64
2023/04/11 01:56:48;;;;;;;;;9.80;9.80;;;;;;;;5017698;29;8837;-65
2023/04/11 01:59:19;;;;;;;;;4.00;4.00;;;;;;;;5032725;29;8786;-65
2023/04/11 02:01:50;;;;;;;;;10.00;8.80;;;;;;;;5033416;29;8873;-65
2023/04/11 02:04:21;;;;;;;;;8.80;8.80;;;;;;;;5048088;29;8794;-65
2023/04/11 02:06:52;;;;;;;;;8.00;8.00;;;;;;;;5048509;29;9010;-65
2023/04/11 02:09:23;;;;;;;;;6.00;6.00;;;;;;;;5032874;29;8830;-65
2023/04/11 02:11:56;;;;;;;;;10.60;9.20;;;;;;;;5032479;29;8809;-65
2023/04/11 02:14:37;;;;;;;;;20.40;20.40;;;;;;;;5048692;29;8848;-65
2023/04/11 02:17:11;;;;;;;;;24.40;24.40;;;;;;;;5045783;29;8846;-64
2023/04/11 02:19:44;;;;;;;;;36.40;33.40;;;;;;;;5047479;29;8830;-65
2023/04/11 02:22:15;;;;;;;;;54.20;46.60;;;;;;;;5033293;29;8790;-65
2023/04/11 02:24:46;;;;;;;;;45.60;42.80;;;;;;;;5045918;29;8810;-65
2023/04/11 02:27:17;;;;;;;;;28.00;27.20;;;;;;;;5048476;29;8794;-64
2023/04/11 02:29:48;;;;;;;;;27.40;27.20;;;;;;;;5048082;29;8798;-64
2023/04/11 02:32:20;;;;;;;;;24.00;23.60;;;;;;;;5050715;29;8810;-64
2023/04/11 02:34:51;;;;;;;;;18.20;17.80;;;;;;;;5068860;29;9622;-65
2023/04/11 02:37:24;;;;;;;;;19.80;18.00;;;;;;;;5052041;29;8936;-65
2023/04/11 02:39:56;;;;;;;;;28.20;27.60;;;;;;;;5036367;29;8944;-65
2023/04/11 02:42:27;;;;;;;;;34.80;31.00;;;;;;;;5021112;29;9488;-65
2023/04/11 02:44:58;;;;;;;;;36.20;34.00;;;;;;;;5080265;29;8867;-64
2023/04/11 02:47:33;;;;;;;;;42.40;41.00;;;;;;;;5072096;29;9527;-64
2023/04/11 02:50:09;;;;;;;;;39.20;38.40;;;;;;;;5071681;29;9554;-64
2023/04/11 02:52:48;;;;;;;;;38.60;36.60;;;;;;;;5052032;29;8908;-65
2023/04/11 02:55:22;;;;;;;;;42.80;41.40;;;;;;;;5050082;29;8837;-65
2023/04/11 02:57:54;;;;;;;;;57.00;49.00;;;;;;;;5034138;29;8856;-66
2023/04/11 03:00:26;;;;;;;;;64.60;54.60;;;;;;;;5034551;29;8801;-66
2023/04/11 03:03:05;;;;;;;;;49.60;45.40;;;;;;;;5045078;29;8812;-66
2023/04/11 03:05:41;;;;;;;;;65.60;54.80;;;;;;;;5043513;29;8806;-67
2023/04/11 03:08:12;;;;;;;;;57.00;49.50;;;;;;;;5050095;29;9556;-66
2023/04/11 03:10:50;;;;;;;;;39.40;38.20;;;;;;;;5034806;29;9751;-66
2023/04/11 03:13:21;;;;;;;;;33.00;31.80;;;;;;;;5033587;29;8822;-69
2023/04/11 03:15:52;;;;;;;;;28.80;28.80;;;;;;;;5049584;29;8841;-67
2023/04/11 03:18:28;;;;;;;;;18.00;17.40;;;;;;;;5049386;29;9600;-68
2023/04/11 03:21:00;;;;;;;;;20.80;18.20;;;;;;;;5035287;29;8794;-66
2023/04/11 03:23:32;;;;;;;;;20.60;19.20;;;;;;;;5033612;29;8802;-67
2023/04/11 03:26:06;;;;;;;;;19.25;19.00;;;;;;;;5019972;29;8800;-67
2023/04/11 03:28:56;;;;;;;;;17.80;16.60;;;;;;;;5051154;29;8821;-66
2023/04/11 03:31:27;;;;;;;;;23.00;22.80;;;;;;;;5035400;29;8841;-66
2023/04/11 03:33:58;;;;;;;;;24.60;23.00;;;;;;;;5051402;29;8794;-66
2023/04/11 03:36:30;;;;;;;;;27.00;23.75;;;;;;;;5051171;29;8840;-66
2023/04/11 03:39:07;;;;;;;;;28.60;28.60;;;;;;;;5051024;29;11540;-66
2023/04/11 03:41:56;;;;;;;;;28.00;26.60;;;;;;;;5050359;29;8805;-65
2023/04/11 03:44:46;;;;;;;;;30.60;26.80;;;;;;;;5053687;29;8913;-66
2023/04/11 03:47:17;;;;;;;;;17.80;17.20;;;;;;;;5050730;29;8841;-66
2023/04/11 03:49:48;;;;;;;;;41.40;38.40;;;;;;;;5035595;29;8850;-66
2023/04/11 03:52:21;;;;;;;;;47.80;40.80;;;;;;;;5050641;29;8802;-66
2023/04/11 03:54:54;;;;;;;;;78.00;57.40;;;;;;;;5050665;29;8885;-66
2023/04/11 03:57:43;;;;;;;;;44.80;41.80;;;;;;;;5053503;29;8794;-66
2023/04/11 04:00:14;;;;;;;;;55.60;45.00;;;;;;;;5027455;29;8816;-66
2023/04/11 04:02:59;;;;;;;;;37.00;36.80;;;;;;;;5035601;29;8796;-66
2023/04/11 04:05:31;;;;;;;;;27.80;27.80;;;;;;;;5050474;29;8822;-66
2023/04/11 04:08:04;;;;;;;;;26.20;24.40;;;;;;;;5050907;29;8774;-66
2023/04/11 04:10:55;;;;;;;;;10.80;10.80;;;;;;;;5066527;29;8798;-66
2023/04/11 04:13:26;;;;;;;;;11.25;11.25;;;;;;;;5050538;29;8828;-65
2023/04/11 04:16:07;;;;;;;;;14.60;14.00;;;;;;;;5035054;29;8885;-66
2023/04/11 04:18:38;;;;;;;;;20.40;19.00;;;;;;;;5050521;29;9498;-66
2023/04/11 04:21:09;;;;;;;;;23.20;21.60;;;;;;;;5049805;29;8802;-65
2023/04/11 04:23:46;;;;;;;;;24.00;23.20;;;;;;;;5050355;29;8818;-65
2023/04/11 04:26:36;;;;;;;;;5.40;5.20;;;;;;;;5066898;29;8888;-66
2023/04/11 04:29:19;;;;;;;;;3.00;3.00;;;;;;;;5036456;29;8782;-66
2023/04/11 04:31:55;;;;;;;;;3.40;3.40;;;;;;;;5034780;29;8814;-66
2023/04/11 04:34:40;;;;;;;;;3.00;3.00;;;;;;;;5048916;29;8825;-68
2023/04/11 04:37:29;;;;;;;;;2.60;2.60;;;;;;;;5033481;29;8846;-68
2023/04/11 04:40:19;;;;;;;;;1.80;1.80;;;;;;;;5053184;29;8906;-67
2023/04/11 04:43:07;;;;;;;;;3.40;3.40;;;;;;;;5049708;29;8822;-67
2023/04/11 04:46:01;;;;;;;;;2.40;2.40;;;;;;;;5037957;29;8913;-67
2023/04/11 04:48:43;;;;;;;;;7.00;7.00;;;;;;;;5030205;29;9990;-68
2023/04/11 04:51:14;;;;;;;;;7.50;7.50;;;;;;;;5036608;29;8819;-67
2023/04/11 04:53:46;;;;;;;;;8.40;8.40;;;;;;;;5053855;29;9914;-67
2023/04/11 04:56:18;;;;;;;;;6.80;6.80;;;;;;;;5033249;29;8953;-67
2023/04/11 04:58:52;;;;;;;;;18.00;17.20;;;;;;;;5064351;29;8809;-67
2023/04/11 05:01:26;;;;;;;;;7.00;6.60;;;;;;;;5047960;29;8806;-67
2023/04/11 05:04:00;;;;;;;;;10.40;10.40;;;;;;;;5048221;29;8817;-67
2023/04/11 05:06:54;;;;;;;;;12.20;11.00;;;;;;;;5047713;29;8825;-68
2023/04/11 05:09:25;;;;;;;;;3.80;3.20;;;;;;;;5032521;29;8794;-68
2023/04/11 05:12:02;;;;;;;;;1.80;1.80;;;;;;;;5047853;29;9733;-68
2023/04/11 05:14:34;;;;;;;;;1.00;1.00;;;;;;;;5016983;29;8822;-68
2023/04/11 05:17:06;;;;;;;;;0.00;0.00;;;;;;;;5047686;29;8864;-68
2023/04/11 05:19:37;;;;;;;;;0.00;0.00;;;;;;;;5048074;29;8984;-68
2023/04/11 05:22:08;;;;;;;;;0.00;0.00;;;;;;;;5031960;29;8932;-67
2023/04/11 05:24:43;;;;;;;;;1.00;1.00;;;;;;;;5047406;29;9736;-67
2023/04/11 05:27:33;;;;;;;;;0.60;0.60;;;;;;;;5047853;29;8798;-69
2023/04/11 05:30:04;;;;;;;;;0.00;0.00;;;;;;;;5064413;29;8802;-69
2023/04/11 05:32:41;;;;;;;;;0.00;0.00;;;;;;;;5063555;29;11454;-68
2023/04/11 05:35:13;;;;;;;;;1.00;1.00;;;;;;;;5063798;29;8778;-68
2023/04/11 05:38:02;;;;;;;;;0.20;0.00;;;;;;;;5063857;29;8948;-68
2023/04/11 05:40:35;;;;;;;;;0.00;0.00;;;;;;;;5031935;29;9615;-68
2023/04/11 05:43:07;;;;;;;;;0.00;0.00;;;;;;;;5047106;29;8928;-68
2023/04/11 05:45:46;;;;;;;;;0.00;0.00;;;;;;;;5047243;29;8801;-68
2023/04/11 05:48:18;;;;;;;;;2.00;0.00;;;;;;;;5047370;29;8932;-68
2023/04/11 05:50:50;;;;;;;;;0.00;0.00;;;;;;;;5015915;29;8824;-68
2023/04/11 05:53:21;;;;;;;;;0.80;0.80;;;;;;;;5047212;29;8848;-68
2023/04/11 05:55:52;;;;;;;;;3.00;2.50;;;;;;;;5046623;29;8833;-68
2023/04/11 05:58:24;;;;;;;;;1.00;1.00;;;;;;;;5031091;29;10347;-68
2023/04/11 06:00:56;;;;;;;;;0.00;0.00;;;;;;;;5031549;29;8845;-68
2023/04/11 06:03:27;;;;;;;;;0.00;0.00;;;;;;;;5047206;29;8790;-68
2023/04/11 06:05:59;;;;;;;;;0.00;0.00;;;;;;;;5047111;29;8810;-68
2023/04/11 06:08:30;;;;;;;;;0.80;0.80;;;;;;;;5063611;29;11403;-68
2023/04/11 06:11:01;;;;;;;;;0.00;0.00;;;;;;;;5030857;29;8805;-68
2023/04/11 06:13:32;;;;;;;;;0.00;0.00;;;;;;;;5047004;29;8798;-68
2023/04/11 06:16:04;;;;;;;;;0.00;0.00;;;;;;;;5047051;29;8852;-67
2023/04/11 06:18:35;;;;;;;;;0.00;0.00;;;;;;;;5031505;29;11589;-67
2023/04/11 06:21:06;;;;;;;;;1.00;1.00;;;;;;;;5063291;29;8790;-68
2023/04/11 06:23:37;;;;;;;;;1.00;1.00;;;;;;;;5063287;29;8816;-68
2023/04/11 06:26:08;;;;;;;;;2.00;1.00;;;;;;;;5031391;29;8840;-68
2023/04/11 06:28:39;;;;;;;;;0.00;0.00;;;;;;;;5063089;29;9546;-68
2023/04/11 06:31:28;;;;;;;;;2.40;2.40;;;;;;;;5063405;29;9427;-68
2023/04/11 06:34:00;;;;;;;;;5.20;5.20;;;;;;;;5046577;29;8809;-68
2023/04/11 06:36:31;;;;;;;;;2.00;2.00;;;;;;;;5063573;29;8836;-67
2023/04/11 06:39:04;;;;;;;;;3.00;3.00;;;;;;;;5063110;29;8844;-67
2023/04/11 06:41:35;;;;;;;;;0.40;0.40;;;;;;;;5046837;29;8797;-68
2023/04/11 06:44:25;;;;;;;;;1.40;1.40;;;;;;;;5046747;29;8817;-68
2023/04/11 06:46:57;;;;;;;;;0.00;0.00;;;;;;;;5046150;29;8806;-68
2023/04/11 06:49:47;;;;;;;;;1.00;1.00;;;;;;;;5063012;29;9545;-68
2023/04/11 06:52:18;;;;;;;;;2.00;2.00;;;;;;;;5046444;29;8801;-68
2023/04/11 06:54:49;;;;;;;;;4.60;4.60;;;;;;;;5031006;29;8802;-68
2023/04/11 06:57:20;;;;;;;;;4.00;4.00;;;;;;;;5063196;29;9608;-68
2023/04/11 06:59:51;;;;;;;;;1.80;1.80;;;;;;;;5063213;29;10099;-68
2023/04/11 07:02:41;;;;;;;;;1.00;1.00;;;;;;;;5046381;29;8782;-68
2023/04/11 07:05:12;;;;;;;;;2.00;2.00;;;;;;;;5046116;29;8913;-68
2023/04/11 07:07:43;;;;;;;;;4.50;4.00;;;;;;;;5031076;29;8877;-68
2023/04/11 07:10:14;;;;;;;;;6.40;6.40;;;;;;;;5062920;29;9876;-68
2023/04/11 07:12:45;;;;;;;;;10.20;9.60;;;;;;;;5046234;29;8806;-68
2023/04/11 07:15:34;;;;;;;;;8.00;8.00;;;;;;;;5062958;29;8821;-68
2023/04/11 07:18:05;;;;;;;;;4.00;4.00;;;;;;;;5048565;29;8936;-68
2023/04/11 07:20:36;;;;;;;;;2.25;2.25;;;;;;;;5050066;29;8944;-68
2023/04/11 07:23:07;;;;;;;;;3.20;3.20;;;;;;;;5066296;29;8894;-68
2023/04/11 07:25:56;;;;;;;;;5.80;5.00;;;;;;;;5052304;29;8832;-68
2023/04/11 07:28:30;;;;;;;;;2.00;2.00;;;;;;;;5050333;29;8802;-68
2023/04/11 07:31:01;;;;;;;;;2.00;2.00;;;;;;;;5066521;29;8901;-68
2023/04/11 07:33:32;;;;;;;;;4.40;4.40;;;;;;;;5066417;29;9596;-68
2023/04/11 07:36:03;;;;;;;;;1.80;1.40;;;;;;;;5033803;29;9600;-68
2023/04/11 07:38:36;;;;;;;;;4.20;4.20;;;;;;;;5018773;29;8817;-68
2023/04/11 07:41:08;;;;;;;;;1.60;1.60;;;;;;;;5066484;29;8861;-68
2023/04/11 07:43:58;;;;;;;;;1.00;1.00;;;;;;;;5065855;29;8967;-68
2023/04/11 07:46:29;;;;;;;;;0.20;0.20;;;;;;;;5065993;29;8798;-68
2023/04/11 07:49:00;;;;;;;;;3.60;3.60;;;;;;;;5049246;29;8805;-68
2023/04/11 07:51:31;;;;;;;;;4.00;3.00;;;;;;;;5049124;29;8810;-69
2023/04/11 07:54:02;;;;;;;;;2.00;2.00;;;;;;;;5049374;29;8806;-68
2023/04/11 07:56:34;;;;;;;;;2.40;2.40;;;;;;;;5049063;29;8849;-68
2023/04/11 07:59:04;;;;;;;;;4.60;4.60;;;;;;;;5048697;29;8813;-68
2023/04/11 08:01:35;;;;;;;;;3.00;3.00;;;;;;;;5034108;29;9498;-70
2023/04/11 08:04:06;;;;;;;;;5.00;4.75;;;;;;;;5048807;29;11489;-70
2023/04/11 08:06:37;;;;;;;;;2.00;2.00;;;;;;;;5062163;29;11476;-72
2023/04/11 08:09:09;;;;;;;;;3.80;3.80;;;;;;;;5043967;29;9860;-69
2023/04/11 08:11:40;;;;;;;;;2.00;2.00;;;;;;;;5060765;29;8876;-68
2023/04/11 08:14:11;;;;;;;;;2.00;2.00;;;;;;;;5067376;29;8837;-67
2023/04/11 08:16:42;;;;;;;;;4.00;4.00;;;;;;;;5019724;29;9564;-68
2023/04/11 08:19:13;;;;;;;;;6.00;6.00;;;;;;;;5067337;29;8866;-68
2023/04/11 08:21:44;;;;;;;;;3.00;3.00;;;;;;;;5067402;29;8936;-67
2023/04/11 08:24:15;;;;;;;;;2.40;2.40;;;;;;;;5050952;29;8806;-68
2023/04/11 08:26:46;;;;;;;;;1.75;1.75;;;;;;;;5066694;29;8815;-68
2023/04/11 08:29:17;;;;;;;;;2.50;2.50;;;;;;;;5067387;29;8809;-68
2023/04/11 08:31:48;;;;;;;;;1.40;1.40;;;;;;;;5066550;29;9600;-73
2023/04/11 08:34:19;;;;;;;;;2.00;2.00;;;;;;;;5066129;29;8832;-69
2023/04/11 08:36:50;;;;;;;;;3.00;3.00;;;;;;;;5049948;29;8841;-69
2023/04/11 08:39:21;;;;;;;;;2.00;2.00;;;;;;;;5066878;29;10980;-69
2023/04/11 08:41:52;;;;;;;;;0.00;0.00;;;;;;;;5050257;29;9623;-69
2023/04/11 08:44:41;;;;;;;;;3.00;3.00;;;;;;;;5050243;29;9972;-69
2023/04/11 08:47:14;;;;;;;;;2.00;2.00;;;;;;;;5034519;29;8821;-70
2023/04/11 08:49:45;;;;;;;;;2.80;2.80;;;;;;;;5050322;29;8790;-69
2023/04/11 08:52:18;;;;;;;;;1.50;1.50;;;;;;;;5050013;29;8828;-68
2023/04/11 08:54:56;;;;;;;;;4.00;4.00;;;;;;;;5049329;29;8822;-68
2023/04/11 08:57:33;;;;;;;;;2.60;2.60;;;;;;;;5056091;29;8891;-68
2023/04/11 09:00:17;;;;;;;;;4.00;4.00;;;;;;;;5086382;29;8806;-68
2023/04/11 09:03:02;;;;;;;;;4.60;4.60;;;;;;;;5047049;29;8796;-69
2023/04/11 09:05:37;;;;;;;;;2.60;2.60;;;;;;;;5030675;29;8880;-69
2023/04/11 09:08:12;;;;;;;;;1.00;1.00;;;;;;;;5045923;29;8796;-69
2023/04/11 09:10:44;;;;;;;;;1.50;1.50;;;;;;;;5046954;29;8777;-69
2023/04/11 09:13:19;;;;;;;;;3.00;3.00;;;;;;;;5058868;29;8800;-70
2023/04/11 09:16:19;;;;;;;;;2.00;2.00;;;;;;;;5053273;29;8835;-70
2023/04/11 09:18:50;;;;;;;;;1.20;1.20;;;;;;;;5077157;29;8800;-70
2023/04/11 09:21:21;;;;;;;;;4.20;4.20;;;;;;;;5085907;29;8827;-69
2023/04/11 09:23:53;;;;;;;;;3.00;3.00;;;;;;;;5068784;29;8820;-69
2023/04/11 09:26:25;;;;;;;;;4.40;3.00;;;;;;;;5068668;29;8854;-70
2023/04/11 09:28:56;;;;;;;;;1.80;1.80;;;;;;;;5085791;29;8823;-69
2023/04/11 09:31:41;;;;;;;;;4.00;4.00;;;;;;;;5068301;29;8807;-69
2023/04/11 09:34:12;;;;;;;;;2.80;2.80;;;;;;;;5068673;29;11463;-69
2023/04/11 09:36:52;;;;;;;;;3.00;3.00;;;;;;;;5068627;29;8807;-68
2023/04/11 09:39:27;;;;;;;;;3.00;3.00;;;;;;;;5066935;29;8834;-69
2023/04/11 09:41:58;;;;;;;;;2.20;2.20;;;;;;;;5064240;29;9546;-70
2023/04/11 09:44:36;;;;;;;;;4.00;4.00;;;;;;;;5032460;29;9695;-68
2023/04/11 09:47:08;;;;;;;;;2.00;2.00;;;;;;;;5064318;29;8844;-68
2023/04/11 09:49:39;;;;;;;;;1.75;1.75;;;;;;;;5016336;29;8802;-68
2023/04/11 09:52:30;;;;;;;;;2.00;2.00;;;;;;;;5044773;29;8822;-68
2023/04/11 09:55:03;;;;;;;;;2.00;2.00;;;;;;;;5048432;29;8848;-68
2023/04/11 09:57:35;;;;;;;;;3.00;3.00;;;;;;;;5031385;29;8846;-68
2023/04/11 10:00:15;;;;;;;;;2.75;2.00;;;;;;;;5063736;29;8786;-69
2023/04/11 10:02:48;;;;;;;;;2.25;2.25;;;;;;;;5063506;29;8790;-69
2023/04/11 10:05:20;;;;;;;;;8.25;8.25;;;;;;;;5031586;29;8805;-70
2023/04/11 10:08:00;;;;;;;;;3.75;3.75;;;;;;;;5040471;29;8830;-70
2023/04/11 10:10:32;;;;;;;;;26.20;25.20;;;;;;;;5045753;29;8875;-70
2023/04/11 10:13:23;;;;;;;;;5.00;5.00;;;;;;;;5029248;29;9023;-70
2023/04/11 10:16:08;;;;;;;;;3.80;3.80;;;;;;;;5059994;29;9568;-70
2023/04/11 10:18:59;;;;;;;;;3.50;3.00;;;;;;;;5065226;29;8778;-70
2023/04/11 10:21:33;;;;;;;;;4.25;3.75;;;;;;;;5038876;29;8845;-70
2023/04/11 10:24:08;;;;;;;;;2.00;2.00;;;;;;;;5048454;29;8936;-69
2023/04/11 10:26:59;;;;;;;;;2.00;2.00;;;;;;;;5065251;29;8801;-70
2023/04/11 10:29:33;;;;;;;;;1.00;1.00;;;;;;;;5033051;29;8802;-67
2023/04/11 10:32:11;;;;;;;;;2.00;2.00;;;;;;;;5064957;29;8793;-67
2023/04/11 10:34:48;;;;;;;;;2.00;2.00;;;;;;;;5032767;29;8921;-68
2023/04/11 10:37:37;;;;;;;;;3.00;3.00;;;;;;;;5032733;29;8806;-68
2023/04/11 10:40:08;;;;;;;;;4.25;4.25;;;;;;;;5048464;29;8834;-70
2023/04/11 10:42:41;;;;;;;;;1.00;1.00;;;;;;;;5048612;29;8782;-68
2023/04/11 10:45:15;;;;;;;;;1.50;1.50;;;;;;;;5032898;29;8820;-70
2023/04/11 10:47:58;;;;;;;;;3.00;3.00;;;;;;;;5047985;29;8782;-67
2023/04/11 10:50:47;;;;;;;;;3.00;3.00;;;;;;;;5064507;29;8817;-68
2023/04/11 10:53:39;;;;;;;;;5.00;5.00;;;;;;;;5035133;29;8912;-68
2023/04/11 10:56:10;;;;;;;;;6.75;6.75;;;;;;;;5036366;29;8818;-70
2023/04/11 10:58:41;;;;;;;;;4.75;4.75;;;;;;;;5052157;29;8798;-68
2023/04/11 11:01:16;;;;;;;;;3.00;3.00;;;;;;;;5052136;29;11543;-69
2023/04/11 11:03:51;;;;;;;;;2.25;2.25;;;;;;;;5036445;29;11471;-69
2023/04/11 11:06:23;;;;;;;;;2.25;2.25;;;;;;;;5068334;29;8897;-69
2023/04/11 11:08:54;;;;;;;;;2.00;2.00;;;;;;;;5051568;29;9488;-69
2023/04/11 11:11:25;;;;;;;;;8.00;7.60;;;;;;;;5034870;29;8923;-70
2023/04/11 11:13:56;;;;;;;;;2.50;2.50;;;;;;;;5032923;29;9563;-70
2023/04/11 11:16:27;;;;;;;;;2.00;2.00;;;;;;;;5032624;29;8824;-70
2023/04/11 11:18:58;;;;;;;;;2.75;2.75;;;;;;;;5049058;29;10061;-70
2023/04/11 11:21:31;;;;;;;;;2.00;2.00;;;;;;;;5032286;29;8797;-70
2023/04/11 11:24:03;;;;;;;;;2.50;2.50;;;;;;;;5049027;29;9542;-70
2023/04/11 11:26:35;;;;;;;;;3.00;3.00;;;;;;;;5037043;29;8806;-70
2023/04/11 11:29:06;;;;;;;;;2.25;2.25;;;;;;;;5068192;29;8794;-70
2023/04/11 11:31:40;;;;;;;;;10.40;10.40;;;;;;;;5051176;29;8807;-70
2023/04/11 11:34:11;;;;;;;;;6.20;6.20;;;;;;;;5036334;29;8928;-70
2023/04/11 11:36:43;;;;;;;;;5.25;5.25;;;;;;;;5068050;29;8956;-70
2023/04/11 11:39:14;;;;;;;;;2.50;2.50;;;;;;;;5051355;29;8838;-70
2023/04/11 11:41:45;;;;;;;;;3.00;3.00;;;;;;;;5067915;29;8836;-70
2023/04/11 11:44:23;;;;;;;;;4.00;4.00;;;;;;;;5050981;29;8810;-71
2023/04/11 11:47:00;;;;;;;;;5.40;5.40;;;;;;;;5035603;29;11406;-70
2023/04/11 11:49:44;;;;;;;;;5.00;5.00;;;;;;;;5051425;29;8802;-70
2023/04/11 11:52:35;;;;;;;;;4.50;4.50;;;;;;;;5035496;29;9561;-70
2023/04/11 11:55:08;;;;;;;;;5.00;5.00;;;;;;;;5067646;29;8820;-70
2023/04/11 11:57:43;;;;;;;;;8.00;8.00;;;;;;;;5050444;29;8818;-69
2023/04/11 12:00:22;;;;;;;;;2.50;2.50;;;;;;;;5035438;29;8790;-69
2023/04/11 12:02:54;;;;;;;;;4.00;4.00;;;;;;;;5035051;29;8810;-69
2023/04/11 12:05:31;;;;;;;;;4.00;4.00;;;;;;;;5050807;29;8798;-69
2023/04/11 12:08:04;;;;;;;;;34.60;32.00;;;;;;;;5035393;29;9584;-69
2023/04/11 12:10:39;;;;;;;;;7.25;7.25;;;;;;;;5034971;29;8825;-69
2023/04/11 12:13:15;;;;;;;;;5.00;5.00;;;;;;;;5035246;29;8797;-69
2023/04/11 12:15:51;;;;;;;;;8.25;8.25;;;;;;;;5035474;29;8798;-68
2023/04/11 12:18:22;;;;;;;;;3.00;3.00;;;;;;;;5051109;29;8809;-68
2023/04/11 12:20:54;;;;;;;;;8.50;8.50;;;;;;;;5067432;29;8806;-70
2023/04/11 12:23:25;;;;;;;;;13.80;13.80;;;;;;;;5049590;29;8810;-71
2023/04/11 12:25:55;;;;;;;;;55.50;45.50;;;;;;;;5067083;29;8798;-69
2023/04/11 12:28:26;;;;;;;;;45.75;39.50;;;;;;;;5049960;29;8893;-71
2023/04/11 12:30:57;;;;;;;;;61.25;49.00;;;;;;;;5050136;29;8814;-71
2023/04/11 12:33:28;;;;;;;;;39.25;35.50;;;;;;;;5067214;29;8790;-70
2023/04/11 12:36:00;;;;;;;;;14.25;13.50;;;;;;;;5050190;29;11527;-70
2023/04/11 12:38:32;;;;;;;;;46.20;38.20;;;;;;;;5066660;29;8860;-70
2023/04/11 12:41:03;;;;;;;;;5.00;5.00;;;;;;;;5050846;29;8855;-71
2023/04/11 12:43:34;;;;;;;;;3.25;3.25;;;;;;;;5067045;29;8820;-71
2023/04/11 12:46:05;;;;;;;;;5.00;5.00;;;;;;;;5050424;29;8798;-71
2023/04/11 12:48:36;;;;;;;;;1.00;1.00;;;;;;;;5066675;29;8783;-71
2023/04/11 12:51:06;;;;;;;;;14.00;12.25;;;;;;;;5050055;29;8809;-70
2023/04/11 12:53:37;;;;;;;;;18.50;18.50;;;;;;;;5034672;29;8786;-70
2023/04/11 12:56:08;;;;;;;;;7.40;7.40;;;;;;;;5066337;29;8841;-70
2023/04/11 12:58:40;;;;;;;;;29.00;28.80;;;;;;;;5049689;29;8790;-70
2023/04/11 13:01:11;;;;;;;;;2.00;2.00;;;;;;;;5066447;29;8802;-70
2023/04/11 13:03:41;;;;;;;;;6.00;6.00;;;;;;;;5034147;29;11540;-71
2023/04/11 13:06:12;;;;;;;;;21.00;20.75;;;;;;;;5066241;29;9530;-71
2023/04/11 13:08:43;;;;;;;;;5.00;5.00;;;;;;;;5049528;29;9939;-71
2023/04/11 13:11:14;;;;;;;;;26.50;25.75;;;;;;;;5049555;29;8864;-71
2023/04/11 13:13:45;;;;;;;;;14.20;14.20;;;;;;;;5034174;29;8794;-70
2023/04/11 13:16:35;;;;;;;;;10.00;10.00;;;;;;;;5049063;29;8829;-71
2023/04/11 13:19:06;;;;;;;;;16.20;15.60;;;;;;;;5066222;29;8810;-71
2023/04/11 13:21:37;;;;;;;;;30.60;29.20;;;;;;;;5031544;29;9557;-71
2023/04/11 13:24:08;;;;;;;;;15.40;14.60;;;;;;;;5064208;29;8828;-72
2023/04/11 13:26:40;;;;;;;;;31.75;28.50;;;;;;;;5036959;29;8806;-71
2023/04/11 13:29:11;;;;;;;;;21.60;20.80;;;;;;;;5048736;29;8806;-71
2023/04/11 13:31:42;;;;;;;;;14.25;13.50;;;;;;;;5065650;29;8822;-71
2023/04/11 13:34:31;;;;;;;;;14.75;13.25;;;;;;;;5064529;29;11506;-71
2023/04/11 13:37:02;;;;;;;;;12.80;11.80;;;;;;;;5046530;29;8824;-71
2023/04/11 13:39:33;;;;;;;;;19.60;19.60;;;;;;;;5045191;29;8839;-71
2023/04/11 13:42:04;;;;;;;;;19.25;19.25;;;;;;;;5045462;29;8785;-71
2023/04/11 13:44:35;;;;;;;;;13.00;11.25;;;;;;;;5063508;29;8790;-71
2023/04/11 13:47:06;;;;;;;;;9.25;9.25;;;;;;;;5064903;29;11514;-71
2023/04/11 13:49:37;;;;;;;;;4.25;3.50;;;;;;;;5048582;29;8790;-71
2023/04/11 13:52:08;;;;;;;;;19.75;19.50;;;;;;;;5048647;29;8781;-71
2023/04/11 13:54:39;;;;;;;;;36.50;33.50;;;;;;;;5048418;29;10493;-71
2023/04/11 13:57:10;;;;;;;;;19.40;19.00;;;;;;;;5047879;29;9429;-71
2023/04/11 13:59:41;;;;;;;;;16.50;15.00;;;;;;;;5048440;29;8956;-71
2023/04/11 14:02:12;;;;;;;;;23.25;21.50;;;;;;;;5065398;29;8794;-70
2023/04/11 14:04:42;;;;;;;;;25.50;24.00;;;;;;;;5065606;29;9773;-71
2023/04/11 14:07:15;;;;;;;;;22.60;22.00;;;;;;;;5048716;29;11529;-71
2023/04/11 14:09:46;;;;;;;;;15.00;14.80;;;;;;;;5048293;29;8806;-70
2023/04/11 14:12:17;;;;;;;;;13.00;13.00;;;;;;;;5048270;29;8794;-70
2023/04/11 14:14:48;;;;;;;;;7.60;7.60;;;;;;;;5047668;29;8844;-70
2023/04/11 14:17:19;;;;;;;;;13.00;12.60;;;;;;;;5065317;29;8810;-71
2023/04/11 14:19:50;;;;;;;;;15.00;14.60;;;;;;;;5049000;29;8852;-71
2023/04/11 14:22:21;;;;;;;;;12.00;11.40;;;;;;;;5047938;29;8805;-71
2023/04/11 14:24:52;;;;;;;;;8.00;8.00;;;;;;;;5070679;29;8879;-72
2023/04/11 14:27:23;;;;;;;;;12.00;11.00;;;;;;;;5056283;29;8891;-72
2023/04/11 14:29:54;;;;;;;;;8.00;8.00;;;;;;;;5033041;29;9601;-72
2023/04/11 14:32:25;;;;;;;;;2.75;2.75;;;;;;;;5048040;29;8833;-72
2023/04/11 14:34:56;;;;;;;;;7.75;7.75;;;;;;;;5048022;29;8770;-72
2023/04/11 14:37:27;;;;;;;;;4.25;4.25;;;;;;;;5064702;29;8851;-71
2023/04/11 14:39:58;;;;;;;;;17.00;17.00;;;;;;;;5048076;29;8960;-71
2023/04/11 14:42:28;;;;;;;;;29.00;26.67;;;;;;;;5048439;29;8810;-71
2023/04/11 14:44:59;;;;;;;;;22.00;21.67;;;;;;;;5064432;29;11869;-71
2023/04/11 14:47:31;;;;;;;;;22.25;20.50;;;;;;;;5047543;29;11063;-71
2023/04/11 14:50:02;;;;;;;;;17.50;17.50;;;;;;;;5064627;29;8818;-71
2023/04/11 14:52:34;;;;;;;;;26.00;26.00;;;;;;;;5064672;29;8835;-71
2023/04/11 14:55:05;;;;;;;;;26.00;26.00;;;;;;;;5048228;29;8798;-71
2023/04/11 14:57:51;;;;;;;;;28.25;27.75;;;;;;;;5063545;29;8818;-71
2023/04/11 15:00:23;;;;;;;;;30.20;29.00;;;;;;;;5047771;29;8910;-71
2023/04/11 15:02:55;;;;;;;;;43.00;36.20;;;;;;;;5064796;29;8802;-72
2023/04/11 15:05:27;;;;;;;;;48.40;41.20;;;;;;;;5048002;29;8824;-71
2023/04/11 15:07:58;;;;;;;;;53.20;43.40;;;;;;;;5064877;29;9526;-71
2023/04/11 15:10:29;;;;;;;;;40.80;34.60;;;;;;;;5068832;29;8821;-71
2023/04/11 15:13:00;;;;;;;;;39.40;34.20;;;;;;;;5064829;29;8798;-71
2023/04/11 15:15:31;;;;;;;;;34.25;32.25;;;;;;;;5048497;29;8811;-71
2023/04/11 15:18:19;;;;;;;;;30.40;29.40;;;;;;;;5048020;29;8806;-70
2023/04/11 15:20:51;;;;;;;;;41.40;35.60;;;;;;;;5064539;29;8840;-71
2023/04/11 15:23:22;;;;;;;;;37.00;33.00;;;;;;;;5064503;29;9534;-70
2023/04/11 15:25:54;;;;;;;;;36.80;32.00;;;;;;;;5049568;29;8839;-71
2023/04/11 15:28:26;;;;;;;;;39.40;34.80;;;;;;;;5063656;29;8916;-70